sensor_id;sensor_type;location;lat;lon;timestamp;temperature;humidity
9033;DHT22;4551;53.164;8.210;2023-06-04T00:02:12;13.70;99.90
9033;DHT22;4551;53.164;8.210;2023-06-04T00:04:40;13.70;99.90
9033;DHT22;4551;53.164;8.210;2023-06-04T00:07:08;13.70;99.90
9033;DHT22;4551;53.164;8.210;2023-06-04T00:09:37;13.60;99.90
9033;DHT22;4551;53.164;8.210;2023-06-04T00:12:06;13.60;99.90
9033;DHT22;4551;53.164;8.210;2023-06-04T00:14:35;13.60;99.90
9033;DHT22;4551;53.164;8.210;2023-06-04T00:17:05;13.50;99.90
9033;DHT22;4551;53.164;8.210;2023-06-04T00:19:33;13.50;99.90
9033;DHT22;4551;53.164;8.210;2023-06-04T00:22:01;13.50;99.90
9033;DHT22;4551;53.164;8.210;2023-06-04T00:24:29;13.50;99.90
9033;DHT22;4551;53.164;8.210;2023-06-04T00:26:57;13.50;99.90
9033;DHT22;4551;53.164;8.210;2023-06-04T00:29:25;13.50;99.90
9033;DHT22;4551;53.164;8.210;2023-06-04T00:31:54;13.50;99.90
9033;DHT22;4551;53.164;8.210;2023-06-04T00:34:23;13.50;99.90
9033;DHT22;4551;53.164;8.210;2023-06-04T00:36:51;13.50;99.90
9033;DHT22;4551;53.164;8.210;2023-06-04T00:39:19;13.40;99.90
9033;DHT22;4551;53.164;8.210;2023-06-04T00:41:47;13.40;99.90
9033;DHT22;4551;53.164;8.210;2023-06-04T00:44:18;13.30;99.90
9033;DHT22;4551;53.164;8.210;2023-06-04T00:46:48;13.30;99.90
9033;DHT22;4551;53.164;8.210;2023-06-04T00:49:21;13.30;99.90
9033;DHT22;4551;53.164;8.210;2023-06-04T00:51:53;13.20;99.90
9033;DHT22;4551;53.164;8.210;2023-06-04T00:54:22;13.20;99.90
9033;DHT22;4551;53.164;8.210;2023-06-04T00:56:50;13.10;99.90
9033;DHT22;4551;53.164;8.210;2023-06-04T00:59:19;13.10;99.90
9033;DHT22;4551;53.164;8.210;2023-06-04T01:01:48;13.10;99.90
9033;DHT22;4551;53.164;8.210;2023-06-04T01:04:25;13.10;99.90
9033;DHT22;4551;53.164;8.210;2023-06-04T01:06:56;13.00;99.90
9033;DHT22;4551;53.164;8.210;2023-06-04T01:09:25;13.00;99.90
9033;DHT22;4551;53.164;8.210;2023-06-04T01:11:53;13.00;99.90
9033;DHT22;4551;53.164;8.210;2023-06-04T01:14:24;13.00;99.90
9033;DHT22;4551;53.164;8.210;2023-06-04T01:16:54;13.00;99.90
9033;DHT22;4551;53.164;8.210;2023-06-04T01:19:43;13.00;99.90
9033;DHT22;4551;53.164;8.210;2023-06-04T01:22:22;13.00;99.90
9033;DHT22;4551;53.164;8.210;2023-06-04T01:24:59;12.90;99.90
9033;DHT22;4551;53.164;8.210;2023-06-04T01:27:28;12.90;99.90
9033;DHT22;4551;53.164;8.210;2023-06-04T01:29:56;12.90;99.90
9033;DHT22;4551;53.164;8.210;2023-06-04T01:32:25;12.90;99.90
9033;DHT22;4551;53.164;8.210;2023-06-04T01:35:02;12.90;99.90
9033;DHT22;4551;53.164;8.210;2023-06-04T01:37:33;12.90;99.90
9033;DHT22;4551;53.164;8.210;2023-06-04T01:40:01;12.90;99.90
9033;DHT22;4551;53.164;8.210;2023-06-04T01:42:34;12.80;99.90
9033;DHT22;4551;53.164;8.210;2023-06-04T01:45:02;12.80;99.90
9033;DHT22;4551;53.164;8.210;2023-06-04T01:47:31;12.70;99.90
9033;DHT22;4551;53.164;8.210;2023-06-04T01:49:59;12.60;99.90
9033;DHT22;4551;53.164;8.210;2023-06-04T01:52:27;12.60;99.90
9033;DHT22;4551;53.164;8.210;2023-06-04T01:54:58;12.60;99.90
9033;DHT22;4551;53.164;8.210;2023-06-04T01:57:26;12.60;99.90
9033;DHT22;4551;53.164;8.210;2023-06-04T01:59:56;12.60;99.90
9033;DHT22;4551;53.164;8.210;2023-06-04T02:02:25;12.60;99.90
9033;DHT22;4551;53.164;8.210;2023-06-04T02:04:54;12.60;99.90
9033;DHT22;4551;53.164;8.210;2023-06-04T02:07:22;12.50;99.90
9033;DHT22;4551;53.164;8.210;2023-06-04T02:09:50;12.50;99.90
9033;DHT22;4551;53.164;8.210;2023-06-04T02:12:19;12.40;99.90
9033;DHT22;4551;53.164;8.210;2023-06-04T02:14:47;12.40;99.90
9033;DHT22;4551;53.164;8.210;2023-06-04T02:17:15;12.30;99.90
9033;DHT22;4551;53.164;8.210;2023-06-04T02:19:45;12.30;99.90
9033;DHT22;4551;53.164;8.210;2023-06-04T02:22:17;12.30;99.90
9033;DHT22;4551;53.164;8.210;2023-06-04T02:24:45;12.30;99.90
9033;DHT22;4551;53.164;8.210;2023-06-04T02:27:14;12.20;99.90
9033;DHT22;4551;53.164;8.210;2023-06-04T02:29:44;12.20;99.90
9033;DHT22;4551;53.164;8.210;2023-06-04T02:32:12;12.20;99.90
9033;DHT22;4551;53.164;8.210;2023-06-04T02:34:40;12.20;99.90
9033;DHT22;4551;53.164;8.210;2023-06-04T02:37:08;12.10;99.90
9033;DHT22;4551;53.164;8.210;2023-06-04T02:39:36;12.10;99.90
9033;DHT22;4551;53.164;8.210;2023-06-04T02:42:04;12.10;99.90
9033;DHT22;4551;53.164;8.210;2023-06-04T02:44:32;12.00;99.90
9033;DHT22;4551;53.164;8.210;2023-06-04T02:47:02;12.10;99.90
9033;DHT22;4551;53.164;8.210;2023-06-04T02:49:30;12.00;99.90
9033;DHT22;4551;53.164;8.210;2023-06-04T02:51:58;12.90;99.90
9033;DHT22;4551;53.164;8.210;2023-06-04T02:54:26;11.90;99.90
9033;DHT22;4551;53.164;8.210;2023-06-04T02:56:54;11.90;99.90
9033;DHT22;4551;53.164;8.210;2023-06-04T02:59:24;11.90;99.90
9033;DHT22;4551;53.164;8.210;2023-06-04T03:01:53;11.90;99.90
9033;DHT22;4551;53.164;8.210;2023-06-04T03:04:22;11.90;99.90
9033;DHT22;4551;53.164;8.210;2023-06-04T03:06:52;11.90;99.90
9033;DHT22;4551;53.164;8.210;2023-06-04T03:09:24;11.90;99.90
9033;DHT22;4551;53.164;8.210;2023-06-04T03:11:52;11.90;99.90
9033;DHT22;4551;53.164;8.210;2023-06-04T03:14:21;11.80;99.90
9033;DHT22;4551;53.164;8.210;2023-06-04T03:16:50;11.70;99.90
9033;DHT22;4551;53.164;8.210;2023-06-04T03:19:19;11.70;99.90
9033;DHT22;4551;53.164;8.210;2023-06-04T03:21:48;11.70;99.90
9033;DHT22;4551;53.164;8.210;2023-06-04T03:24:19;11.60;99.90
9033;DHT22;4551;53.164;8.210;2023-06-04T03:26:47;12.00;99.90
9033;DHT22;4551;53.164;8.210;2023-06-04T03:29:15;11.60;99.90
9033;DHT22;4551;53.164;8.210;2023-06-04T03:31:43;11.60;99.90
9033;DHT22;4551;53.164;8.210;2023-06-04T03:34:12;11.60;99.90
9033;DHT22;4551;53.164;8.210;2023-06-04T03:36:40;11.60;99.90
9033;DHT22;4551;53.164;8.210;2023-06-04T03:39:10;11.60;99.90
9033;DHT22;4551;53.164;8.210;2023-06-04T03:41:38;11.50;99.90
9033;DHT22;4551;53.164;8.210;2023-06-04T03:44:06;11.50;99.90
9033;DHT22;4551;53.164;8.210;2023-06-04T03:46:34;11.50;99.90
9033;DHT22;4551;53.164;8.210;2023-06-04T03:49:02;11.50;99.90
9033;DHT22;4551;53.164;8.210;2023-06-04T03:51:30;11.50;99.90
9033;DHT22;4551;53.164;8.210;2023-06-04T03:53:59;11.50;99.90
9033;DHT22;4551;53.164;8.210;2023-06-04T03:56:30;11.50;99.90
9033;DHT22;4551;53.164;8.210;2023-06-04T03:58:58;11.50;99.90
9033;DHT22;4551;53.164;8.210;2023-06-04T04:01:27;11.40;99.90
9033;DHT22;4551;53.164;8.210;2023-06-04T04:03:55;11.40;99.90
9033;DHT22;4551;53.164;8.210;2023-06-04T04:06:23;11.40;99.90
9033;DHT22;4551;53.164;8.210;2023-06-04T04:08:53;11.40;99.90
9033;DHT22;4551;53.164;8.210;2023-06-04T04:11:22;11.40;99.90
9033;DHT22;4551;53.164;8.210;2023-06-04T04:13:54;11.50;99.90
9033;DHT22;4551;53.164;8.210;2023-06-04T04:16:22;11.50;99.90
9033;DHT22;4551;53.164;8.210;2023-06-04T04:18:50;11.50;99.90
9033;DHT22;4551;53.164;8.210;2023-06-04T04:21:18;11.50;99.90
9033;DHT22;4551;53.164;8.210;2023-06-04T04:23:48;11.50;99.90
9033;DHT22;4551;53.164;8.210;2023-06-04T04:26:17;11.60;99.90
9033;DHT22;4551;53.164;8.210;2023-06-04T04:28:45;11.60;99.90
9033;DHT22;4551;53.164;8.210;2023-06-04T04:31:14;11.60;99.90
9033;DHT22;4551;53.164;8.210;2023-06-04T04:33:44;11.60;99.90
9033;DHT22;4551;53.164;8.210;2023-06-04T04:36:12;11.60;99.90
9033;DHT22;4551;53.164;8.210;2023-06-04T04:38:40;11.60;99.90
9033;DHT22;4551;53.164;8.210;2023-06-04T04:41:08;11.70;99.90
9033;DHT22;4551;53.164;8.210;2023-06-04T04:43:41;11.70;99.90
9033;DHT22;4551;53.164;8.210;2023-06-04T04:46:10;11.80;99.90
9033;DHT22;4551;53.164;8.210;2023-06-04T04:48:39;11.80;99.90
9033;DHT22;4551;53.164;8.210;2023-06-04T04:51:09;11.90;99.90
9033;DHT22;4551;53.164;8.210;2023-06-04T04:53:37;11.90;99.90
9033;DHT22;4551;53.164;8.210;2023-06-04T04:56:07;12.00;99.90
9033;DHT22;4551;53.164;8.210;2023-06-04T04:58:35;11.90;99.90
9033;DHT22;4551;53.164;8.210;2023-06-04T05:01:03;12.10;99.90
9033;DHT22;4551;53.164;8.210;2023-06-04T05:03:31;12.10;99.90
9033;DHT22;4551;53.164;8.210;2023-06-04T05:06:01;12.20;99.90
9033;DHT22;4551;53.164;8.210;2023-06-04T05:08:29;12.20;99.90
9033;DHT22;4551;53.164;8.210;2023-06-04T05:10:57;12.30;99.90
9033;DHT22;4551;53.164;8.210;2023-06-04T05:13:25;12.30;99.90
9033;DHT22;4551;53.164;8.210;2023-06-04T05:15:53;12.40;99.90
9033;DHT22;4551;53.164;8.210;2023-06-04T05:18:22;12.40;99.90
9033;DHT22;4551;53.164;8.210;2023-06-04T05:20:55;12.50;99.90
9033;DHT22;4551;53.164;8.210;2023-06-04T05:23:25;12.50;99.90
9033;DHT22;4551;53.164;8.210;2023-06-04T05:25:55;12.60;99.90
9033;DHT22;4551;53.164;8.210;2023-06-04T05:28:23;12.60;99.90
9033;DHT22;4551;53.164;8.210;2023-06-04T05:30:52;12.60;99.90
9033;DHT22;4551;53.164;8.210;2023-06-04T05:33:25;12.60;99.90
9033;DHT22;4551;53.164;8.210;2023-06-04T05:35:53;12.70;99.90
9033;DHT22;4551;53.164;8.210;2023-06-04T05:38:26;12.70;99.90
9033;DHT22;4551;53.164;8.210;2023-06-04T05:40:54;12.70;99.90
9033;DHT22;4551;53.164;8.210;2023-06-04T05:43:22;12.70;99.90
9033;DHT22;4551;53.164;8.210;2023-06-04T05:45:50;12.80;99.90
9033;DHT22;4551;53.164;8.210;2023-06-04T05:48:19;12.80;99.90
9033;DHT22;4551;53.164;8.210;2023-06-04T05:50:47;12.80;99.90
9033;DHT22;4551;53.164;8.210;2023-06-04T05:53:15;12.90;99.90
9033;DHT22;4551;53.164;8.210;2023-06-04T05:55:45;12.90;99.90
9033;DHT22;4551;53.164;8.210;2023-06-04T05:58:13;13.00;99.90
9033;DHT22;4551;53.164;8.210;2023-06-04T06:00:41;13.10;99.90
9033;DHT22;4551;53.164;8.210;2023-06-04T06:03:09;13.10;99.90
9033;DHT22;4551;53.164;8.210;2023-06-04T06:05:38;13.10;99.90
9033;DHT22;4551;53.164;8.210;2023-06-04T06:08:06;13.10;99.90
9033;DHT22;4551;53.164;8.210;2023-06-04T06:10:36;13.20;99.90
9033;DHT22;4551;53.164;8.210;2023-06-04T06:13:07;13.20;99.90
9033;DHT22;4551;53.164;8.210;2023-06-04T06:15:35;13.30;99.90
9033;DHT22;4551;53.164;8.210;2023-06-04T06:18:03;13.30;99.90
9033;DHT22;4551;53.164;8.210;2023-06-04T06:20:31;13.30;99.90
9033;DHT22;4551;53.164;8.210;2023-06-04T06:23:00;13.30;99.90
9033;DHT22;4551;53.164;8.210;2023-06-04T06:25:33;13.40;99.90
9033;DHT22;4551;53.164;8.210;2023-06-04T06:28:12;13.40;99.90
9033;DHT22;4551;53.164;8.210;2023-06-04T06:30:40;13.50;99.90
9033;DHT22;4551;53.164;8.210;2023-06-04T06:33:08;13.50;99.90
9033;DHT22;4551;53.164;8.210;2023-06-04T06:35:36;13.60;99.90
9033;DHT22;4551;53.164;8.210;2023-06-04T06:38:05;13.60;99.90
9033;DHT22;4551;53.164;8.210;2023-06-04T06:40:33;13.60;99.90
9033;DHT22;4551;53.164;8.210;2023-06-04T06:43:01;13.70;99.90
9033;DHT22;4551;53.164;8.210;2023-06-04T06:45:30;13.80;99.90
9033;DHT22;4551;53.164;8.210;2023-06-04T06:48:00;13.80;99.90
9033;DHT22;4551;53.164;8.210;2023-06-04T06:50:28;13.80;99.90
9033;DHT22;4551;53.164;8.210;2023-06-04T06:52:56;13.90;99.90
9033;DHT22;4551;53.164;8.210;2023-06-04T06:55:24;14.00;99.90
9033;DHT22;4551;53.164;8.210;2023-06-04T06:57:52;14.00;99.90
9033;DHT22;4551;53.164;8.210;2023-06-04T07:00:23;14.00;99.90
9033;DHT22;4551;53.164;8.210;2023-06-04T07:02:53;14.10;99.90
9033;DHT22;4551;53.164;8.210;2023-06-04T07:05:22;14.10;99.90
9033;DHT22;4551;53.164;8.210;2023-06-04T07:07:50;14.20;99.90
9033;DHT22;4551;53.164;8.210;2023-06-04T07:10:18;14.20;99.90
9033;DHT22;4551;53.164;8.210;2023-06-04T07:12:46;14.20;99.90
9033;DHT22;4551;53.164;8.210;2023-06-04T07:15:14;14.30;99.90
9033;DHT22;4551;53.164;8.210;2023-06-04T07:17:42;14.30;99.90
9033;DHT22;4551;53.164;8.210;2023-06-04T07:20:12;14.40;99.90
9033;DHT22;4551;53.164;8.210;2023-06-04T07:22:40;14.50;99.90
9033;DHT22;4551;53.164;8.210;2023-06-04T07:25:08;14.50;99.90
9033;DHT22;4551;53.164;8.210;2023-06-04T07:27:38;14.50;99.90
9033;DHT22;4551;53.164;8.210;2023-06-04T07:30:09;14.60;99.90
9033;DHT22;4551;53.164;8.210;2023-06-04T07:32:40;14.60;99.90
9033;DHT22;4551;53.164;8.210;2023-06-04T07:35:09;14.70;99.90
9033;DHT22;4551;53.164;8.210;2023-06-04T07:37:38;14.70;99.90
9033;DHT22;4551;53.164;8.210;2023-06-04T07:40:07;14.80;99.90
9033;DHT22;4551;53.164;8.210;2023-06-04T07:42:35;14.80;99.90
9033;DHT22;4551;53.164;8.210;2023-06-04T07:45:03;14.90;99.90
9033;DHT22;4551;53.164;8.210;2023-06-04T07:47:31;14.90;99.90
9033;DHT22;4551;53.164;8.210;2023-06-04T07:50:02;15.00;99.90
9033;DHT22;4551;53.164;8.210;2023-06-04T07:52:31;15.10;99.90
9033;DHT22;4551;53.164;8.210;2023-06-04T07:55:00;15.10;99.90
9033;DHT22;4551;53.164;8.210;2023-06-04T07:57:29;15.20;99.90
9033;DHT22;4551;53.164;8.210;2023-06-04T07:59:58;15.20;99.90
9033;DHT22;4551;53.164;8.210;2023-06-04T08:02:26;15.30;99.90
9033;DHT22;4551;53.164;8.210;2023-06-04T08:04:55;15.30;99.90
9033;DHT22;4551;53.164;8.210;2023-06-04T08:07:23;15.40;99.90
9033;DHT22;4551;53.164;8.210;2023-06-04T08:09:51;15.40;99.90
9033;DHT22;4551;53.164;8.210;2023-06-04T08:12:23;15.50;99.90
9033;DHT22;4551;53.164;8.210;2023-06-04T08:14:51;15.60;99.90
9033;DHT22;4551;53.164;8.210;2023-06-04T08:17:23;15.60;99.90
9033;DHT22;4551;53.164;8.210;2023-06-04T08:19:53;15.70;99.90
9033;DHT22;4551;53.164;8.210;2023-06-04T08:22:35;15.70;99.90
9033;DHT22;4551;53.164;8.210;2023-06-04T08:25:11;15.70;99.90
9033;DHT22;4551;53.164;8.210;2023-06-04T08:28:00;15.70;99.90
9033;DHT22;4551;53.164;8.210;2023-06-04T08:30:48;15.80;99.90
9033;DHT22;4551;53.164;8.210;2023-06-04T08:33:34;15.80;99.90
9033;DHT22;4551;53.164;8.210;2023-06-04T08:36:04;15.90;99.90
9033;DHT22;4551;53.164;8.210;2023-06-04T08:38:32;16.00;99.90
9033;DHT22;4551;53.164;8.210;2023-06-04T08:41:01;16.00;99.90
9033;DHT22;4551;53.164;8.210;2023-06-04T08:43:32;16.10;99.90
9033;DHT22;4551;53.164;8.210;2023-06-04T08:46:00;16.20;99.90
9033;DHT22;4551;53.164;8.210;2023-06-04T08:48:33;16.30;99.90
9033;DHT22;4551;53.164;8.210;2023-06-04T08:51:02;16.30;99.90
9033;DHT22;4551;53.164;8.210;2023-06-04T08:53:34;16.30;99.90
9033;DHT22;4551;53.164;8.210;2023-06-04T08:56:03;16.30;99.90
9033;DHT22;4551;53.164;8.210;2023-06-04T08:58:32;16.40;99.90
9033;DHT22;4551;53.164;8.210;2023-06-04T09:01:00;16.40;99.90
9033;DHT22;4551;53.164;8.210;2023-06-04T09:03:29;16.50;99.90
9033;DHT22;4551;53.164;8.210;2023-06-04T09:05:59;16.50;99.90
9033;DHT22;4551;53.164;8.210;2023-06-04T09:08:30;16.50;99.90
9033;DHT22;4551;53.164;8.210;2023-06-04T09:10:59;16.50;99.90
9033;DHT22;4551;53.164;8.210;2023-06-04T09:13:28;16.60;99.90
9033;DHT22;4551;53.164;8.210;2023-06-04T09:16:00;16.60;99.90
9033;DHT22;4551;53.164;8.210;2023-06-04T09:18:28;16.70;99.90
9033;DHT22;4551;53.164;8.210;2023-06-04T09:21:00;16.80;99.90
9033;DHT22;4551;53.164;8.210;2023-06-04T09:23:28;16.80;99.90
9033;DHT22;4551;53.164;8.210;2023-06-04T09:25:57;16.90;99.90
9033;DHT22;4551;53.164;8.210;2023-06-04T09:28:33;17.00;99.90
9033;DHT22;4551;53.164;8.210;2023-06-04T09:31:02;17.20;99.90
9033;DHT22;4551;53.164;8.210;2023-06-04T09:33:41;17.20;99.90
9033;DHT22;4551;53.164;8.210;2023-06-04T09:36:09;17.20;99.90
9033;DHT22;4551;53.164;8.210;2023-06-04T09:38:38;17.30;99.90
9033;DHT22;4551;53.164;8.210;2023-06-04T09:41:10;17.40;99.90
9033;DHT22;4551;53.164;8.210;2023-06-04T09:43:39;17.40;99.90
9033;DHT22;4551;53.164;8.210;2023-06-04T09:46:09;17.50;99.90
9033;DHT22;4551;53.164;8.210;2023-06-04T09:48:38;17.50;99.90
9033;DHT22;4551;53.164;8.210;2023-06-04T09:51:07;17.50;99.90
9033;DHT22;4551;53.164;8.210;2023-06-04T09:53:35;17.50;99.90
9033;DHT22;4551;53.164;8.210;2023-06-04T09:56:04;17.60;99.90
9033;DHT22;4551;53.164;8.210;2023-06-04T09:58:33;17.70;99.90
9033;DHT22;4551;53.164;8.210;2023-06-04T10:01:02;17.60;99.90
9033;DHT22;4551;53.164;8.210;2023-06-04T10:03:33;17.60;99.90
9033;DHT22;4551;53.164;8.210;2023-06-04T10:06:02;17.50;99.90
9033;DHT22;4551;53.164;8.210;2023-06-04T10:08:31;17.50;99.90
9033;DHT22;4551;53.164;8.210;2023-06-04T10:11:01;17.60;99.90
9033;DHT22;4551;53.164;8.210;2023-06-04T10:13:30;17.60;99.90
9033;DHT22;4551;53.164;8.210;2023-06-04T10:15:59;17.70;99.90
9033;DHT22;4551;53.164;8.210;2023-06-04T10:18:28;17.80;99.90
9033;DHT22;4551;53.164;8.210;2023-06-04T10:20:57;17.80;99.90
9033;DHT22;4551;53.164;8.210;2023-06-04T10:23:26;17.60;99.90
9033;DHT22;4551;53.164;8.210;2023-06-04T10:25:56;17.70;99.90
9033;DHT22;4551;53.164;8.210;2023-06-04T10:28:24;17.70;99.90
9033;DHT22;4551;53.164;8.210;2023-06-04T10:30:52;17.70;99.90
9033;DHT22;4551;53.164;8.210;2023-06-04T10:33:20;17.80;99.90
9033;DHT22;4551;53.164;8.210;2023-06-04T10:35:53;17.90;99.90
9033;DHT22;4551;53.164;8.210;2023-06-04T10:38:23;18.00;99.90
9033;DHT22;4551;53.164;8.210;2023-06-04T10:40:51;18.00;99.90
9033;DHT22;4551;53.164;8.210;2023-06-04T10:43:19;18.00;99.90
9033;DHT22;4551;53.164;8.210;2023-06-04T10:45:48;18.00;99.90
9033;DHT22;4551;53.164;8.210;2023-06-04T10:48:16;18.00;99.90
9033;DHT22;4551;53.164;8.210;2023-06-04T10:50:48;18.10;99.90
9033;DHT22;4551;53.164;8.210;2023-06-04T10:53:16;18.00;99.90
9033;DHT22;4551;53.164;8.210;2023-06-04T10:55:47;18.00;99.90
9033;DHT22;4551;53.164;8.210;2023-06-04T10:58:15;18.00;99.90
9033;DHT22;4551;53.164;8.210;2023-06-04T11:00:45;18.00;99.90
9033;DHT22;4551;53.164;8.210;2023-06-04T11:03:16;18.00;99.90
9033;DHT22;4551;53.164;8.210;2023-06-04T11:05:45;18.10;99.90
9033;DHT22;4551;53.164;8.210;2023-06-04T11:08:13;18.10;99.90
9033;DHT22;4551;53.164;8.210;2023-06-04T11:10:42;18.20;99.90
9033;DHT22;4551;53.164;8.210;2023-06-04T11:13:12;18.30;99.90
9033;DHT22;4551;53.164;8.210;2023-06-04T11:15:40;18.40;99.90
9033;DHT22;4551;53.164;8.210;2023-06-04T11:18:13;18.50;99.90
9033;DHT22;4551;53.164;8.210;2023-06-04T11:20:43;18.60;99.90
9033;DHT22;4551;53.164;8.210;2023-06-04T11:23:11;18.60;99.90
9033;DHT22;4551;53.164;8.210;2023-06-04T11:25:40;18.70;99.90
9033;DHT22;4551;53.164;8.210;2023-06-04T11:28:15;18.80;99.90
9033;DHT22;4551;53.164;8.210;2023-06-04T11:30:43;18.70;99.90
9033;DHT22;4551;53.164;8.210;2023-06-04T11:33:11;18.80;99.90
9033;DHT22;4551;53.164;8.210;2023-06-04T11:35:41;18.80;99.90
9033;DHT22;4551;53.164;8.210;2023-06-04T11:38:09;18.80;99.90
9033;DHT22;4551;53.164;8.210;2023-06-04T11:40:38;18.90;99.90
9033;DHT22;4551;53.164;8.210;2023-06-04T11:43:08;18.90;99.90
9033;DHT22;4551;53.164;8.210;2023-06-04T11:45:38;19.10;99.90
9033;DHT22;4551;53.164;8.210;2023-06-04T11:48:06;19.20;99.90
9033;DHT22;4551;53.164;8.210;2023-06-04T11:50:38;19.20;99.90
9033;DHT22;4551;53.164;8.210;2023-06-04T11:53:06;19.30;99.90
9033;DHT22;4551;53.164;8.210;2023-06-04T11:55:35;19.30;99.90
9033;DHT22;4551;53.164;8.210;2023-06-04T11:58:05;19.30;99.90
9033;DHT22;4551;53.164;8.210;2023-06-04T12:00:33;19.40;99.90
9033;DHT22;4551;53.164;8.210;2023-06-04T12:03:03;19.30;99.90
9033;DHT22;4551;53.164;8.210;2023-06-04T12:05:34;19.30;99.90
9033;DHT22;4551;53.164;8.210;2023-06-04T12:08:06;19.30;99.90
9033;DHT22;4551;53.164;8.210;2023-06-04T12:10:36;19.50;99.90
9033;DHT22;4551;53.164;8.210;2023-06-04T12:13:04;19.50;99.90
9033;DHT22;4551;53.164;8.210;2023-06-04T12:15:32;19.50;99.90
9033;DHT22;4551;53.164;8.210;2023-06-04T12:18:00;19.40;99.90
9033;DHT22;4551;53.164;8.210;2023-06-04T12:20:36;19.60;99.90
9033;DHT22;4551;53.164;8.210;2023-06-04T12:23:04;19.60;99.90
9033;DHT22;4551;53.164;8.210;2023-06-04T12:25:33;19.70;99.90
9033;DHT22;4551;53.164;8.210;2023-06-04T12:28:01;19.80;99.90
9033;DHT22;4551;53.164;8.210;2023-06-04T12:30:35;19.80;99.90
9033;DHT22;4551;53.164;8.210;2023-06-04T12:33:04;19.90;99.90
9033;DHT22;4551;53.164;8.210;2023-06-04T12:35:33;20.10;99.90
9033;DHT22;4551;53.164;8.210;2023-06-04T12:38:03;20.10;99.90
9033;DHT22;4551;53.164;8.210;2023-06-04T12:40:32;20.20;99.90
9033;DHT22;4551;53.164;8.210;2023-06-04T12:43:00;20.40;99.90
9033;DHT22;4551;53.164;8.210;2023-06-04T12:45:28;20.40;99.90
9033;DHT22;4551;53.164;8.210;2023-06-04T12:47:59;20.40;99.90
9033;DHT22;4551;53.164;8.210;2023-06-04T12:50:27;20.50;99.90
9033;DHT22;4551;53.164;8.210;2023-06-04T12:52:55;20.60;99.90
9033;DHT22;4551;53.164;8.210;2023-06-04T12:55:25;20.70;99.90
9033;DHT22;4551;53.164;8.210;2023-06-04T12:57:54;20.80;99.90
9033;DHT22;4551;53.164;8.210;2023-06-04T13:00:22;21.00;99.90
9033;DHT22;4551;53.164;8.210;2023-06-04T13:02:50;21.00;99.90
9033;DHT22;4551;53.164;8.210;2023-06-04T13:05:18;21.10;99.90
9033;DHT22;4551;53.164;8.210;2023-06-04T13:07:46;21.20;99.90
9033;DHT22;4551;53.164;8.210;2023-06-04T13:10:14;21.10;99.90
9033;DHT22;4551;53.164;8.210;2023-06-04T13:12:44;21.20;99.90
9033;DHT22;4551;53.164;8.210;2023-06-04T13:15:12;21.40;99.90
9033;DHT22;4551;53.164;8.210;2023-06-04T13:17:40;21.60;99.90
9033;DHT22;4551;53.164;8.210;2023-06-04T13:20:08;21.70;99.90
9033;DHT22;4551;53.164;8.210;2023-06-04T13:22:36;21.60;99.90
9033;DHT22;4551;53.164;8.210;2023-06-04T13:25:05;21.70;99.90
9033;DHT22;4551;53.164;8.210;2023-06-04T13:27:33;21.80;99.90
9033;DHT22;4551;53.164;8.210;2023-06-04T13:30:02;21.80;99.90
9033;DHT22;4551;53.164;8.210;2023-06-04T13:32:31;21.70;99.90
9033;DHT22;4551;53.164;8.210;2023-06-04T13:34:59;21.60;99.90
9033;DHT22;4551;53.164;8.210;2023-06-04T13:37:27;21.60;99.90
9033;DHT22;4551;53.164;8.210;2023-06-04T13:39:55;21.80;99.90
9033;DHT22;4551;53.164;8.210;2023-06-04T13:42:23;22.10;99.90
9033;DHT22;4551;53.164;8.210;2023-06-04T13:44:51;22.30;99.90
9033;DHT22;4551;53.164;8.210;2023-06-04T13:47:21;22.30;99.90
9033;DHT22;4551;53.164;8.210;2023-06-04T13:49:49;22.30;99.90
9033;DHT22;4551;53.164;8.210;2023-06-04T13:52:17;22.30;99.90
9033;DHT22;4551;53.164;8.210;2023-06-04T13:54:45;22.50;99.90
9033;DHT22;4551;53.164;8.210;2023-06-04T13:57:13;22.70;99.90
9033;DHT22;4551;53.164;8.210;2023-06-04T13:59:41;22.80;99.90
9033;DHT22;4551;53.164;8.210;2023-06-04T14:02:09;22.80;99.90
9033;DHT22;4551;53.164;8.210;2023-06-04T14:04:38;22.70;99.90
9033;DHT22;4551;53.164;8.210;2023-06-04T14:07:06;22.70;99.90
9033;DHT22;4551;53.164;8.210;2023-06-04T14:09:34;22.70;99.90
9033;DHT22;4551;53.164;8.210;2023-06-04T14:12:03;22.80;99.90
9033;DHT22;4551;53.164;8.210;2023-06-04T14:14:31;23.00;99.90
9033;DHT22;4551;53.164;8.210;2023-06-04T14:17:03;23.50;99.90
9033;DHT22;4551;53.164;8.210;2023-06-04T14:19:32;23.50;99.90
9033;DHT22;4551;53.164;8.210;2023-06-04T14:22:01;23.40;99.90
9033;DHT22;4551;53.164;8.210;2023-06-04T14:24:29;23.40;99.90
9033;DHT22;4551;53.164;8.210;2023-06-04T14:26:58;23.60;99.90
9033;DHT22;4551;53.164;8.210;2023-06-04T14:29:26;24.10;99.90
9033;DHT22;4551;53.164;8.210;2023-06-04T14:31:54;24.10;99.90
9033;DHT22;4551;53.164;8.210;2023-06-04T14:34:22;24.30;99.90
9033;DHT22;4551;53.164;8.210;2023-06-04T14:36:51;24.40;99.90
9033;DHT22;4551;53.164;8.210;2023-06-04T14:39:20;24.50;99.90
9033;DHT22;4551;53.164;8.210;2023-06-04T14:41:48;24.30;99.90
9033;DHT22;4551;53.164;8.210;2023-06-04T14:44:17;24.70;99.90
9033;DHT22;4551;53.164;8.210;2023-06-04T14:46:45;25.20;99.90
9033;DHT22;4551;53.164;8.210;2023-06-04T14:49:14;25.50;99.90
9033;DHT22;4551;53.164;8.210;2023-06-04T14:51:42;25.80;99.90
9033;DHT22;4551;53.164;8.210;2023-06-04T14:54:10;26.20;99.90
9033;DHT22;4551;53.164;8.210;2023-06-04T14:56:39;26.50;99.90
9033;DHT22;4551;53.164;8.210;2023-06-04T14:59:07;26.10;99.90
9033;DHT22;4551;53.164;8.210;2023-06-04T15:01:38;25.90;99.90
9033;DHT22;4551;53.164;8.210;2023-06-04T15:04:07;25.60;99.90
9033;DHT22;4551;53.164;8.210;2023-06-04T15:06:36;25.50;99.90
9033;DHT22;4551;53.164;8.210;2023-06-04T15:09:04;25.30;99.90
9033;DHT22;4551;53.164;8.210;2023-06-04T15:11:32;25.60;99.90
9033;DHT22;4551;53.164;8.210;2023-06-04T15:14:01;26.30;99.90
9033;DHT22;4551;53.164;8.210;2023-06-04T15:16:29;26.80;99.90
9033;DHT22;4551;53.164;8.210;2023-06-04T15:18:57;27.20;99.90
9033;DHT22;4551;53.164;8.210;2023-06-04T15:21:26;27.50;99.90
9033;DHT22;4551;53.164;8.210;2023-06-04T15:23:54;27.30;99.90
9033;DHT22;4551;53.164;8.210;2023-06-04T15:26:22;27.00;99.90
9033;DHT22;4551;53.164;8.210;2023-06-04T15:28:53;26.90;99.90
9033;DHT22;4551;53.164;8.210;2023-06-04T15:31:24;26.70;99.90
9033;DHT22;4551;53.164;8.210;2023-06-04T15:33:52;26.50;99.90
9033;DHT22;4551;53.164;8.210;2023-06-04T15:36:20;26.70;99.90
9033;DHT22;4551;53.164;8.210;2023-06-04T15:38:48;27.00;99.90
9033;DHT22;4551;53.164;8.210;2023-06-04T15:41:17;27.20;99.90
9033;DHT22;4551;53.164;8.210;2023-06-04T15:43:46;27.30;99.90
9033;DHT22;4551;53.164;8.210;2023-06-04T15:46:15;26.80;99.90
9033;DHT22;4551;53.164;8.210;2023-06-04T15:48:44;26.70;99.90
9033;DHT22;4551;53.164;8.210;2023-06-04T15:51:12;26.80;99.90
9033;DHT22;4551;53.164;8.210;2023-06-04T15:53:40;26.50;99.90
9033;DHT22;4551;53.164;8.210;2023-06-04T15:56:08;26.60;99.90
9033;DHT22;4551;53.164;8.210;2023-06-04T15:58:38;26.70;99.90
9033;DHT22;4551;53.164;8.210;2023-06-04T16:01:06;26.80;99.90
9033;DHT22;4551;53.164;8.210;2023-06-04T16:03:34;26.60;99.90
9033;DHT22;4551;53.164;8.210;2023-06-04T16:06:04;26.40;99.90
9033;DHT22;4551;53.164;8.210;2023-06-04T16:08:33;26.20;99.90
9033;DHT22;4551;53.164;8.210;2023-06-04T16:11:01;25.90;99.90
9033;DHT22;4551;53.164;8.210;2023-06-04T16:13:29;25.50;99.90
9033;DHT22;4551;53.164;8.210;2023-06-04T16:15:57;25.30;99.90